sensor_id;sensor_type;location;lat;lon;timestamp;P1;durP1;ratioP1;P2;durP2;ratioP2
28353;SDS011;15603;50.878;8.036;2023-12-14T00:01:17;21.85;;;9.27;;
28353;SDS011;15603;50.878;8.036;2023-12-14T00:03:45;22.63;;;8.35;;
28353;SDS011;15603;50.878;8.036;2023-12-14T00:06:13;20.13;;;9.30;;
28353;SDS011;15603;50.878;8.036;2023-12-14T00:08:40;24.75;;;8.95;;
28353;SDS011;15603;50.878;8.036;2023-12-14T00:11:08;19.52;;;8.65;;
28353;SDS011;15603;50.878;8.036;2023-12-14T00:13:38;24.52;;;9.00;;
28353;SDS011;15603;50.878;8.036;2023-12-14T00:16:06;22.58;;;9.80;;
28353;SDS011;15603;50.878;8.036;2023-12-14T00:18:34;26.05;;;9.35;;
28353;SDS011;15603;50.878;8.036;2023-12-14T00:21:02;23.80;;;9.23;;
28353;SDS011;15603;50.878;8.036;2023-12-14T00:23:30;21.30;;;9.77;;
28353;SDS011;15603;50.878;8.036;2023-12-14T00:25:57;19.17;;;8.70;;
28353;SDS011;15603;50.878;8.036;2023-12-14T00:28:24;27.15;;;9.80;;
28353;SDS011;15603;50.878;8.036;2023-12-14T00:30:56;20.55;;;9.27;;
28353;SDS011;15603;50.878;8.036;2023-12-14T00:33:24;21.83;;;9.50;;
28353;SDS011;15603;50.878;8.036;2023-12-14T00:35:51;17.85;;;9.07;;
28353;SDS011;15603;50.878;8.036;2023-12-14T00:38:18;25.45;;;9.68;;
28353;SDS011;15603;50.878;8.036;2023-12-14T00:40:45;22.33;;;9.45;;
28353;SDS011;15603;50.878;8.036;2023-12-14T00:43:12;21.63;;;8.55;;
28353;SDS011;15603;50.878;8.036;2023-12-14T00:45:40;20.45;;;8.55;;
28353;SDS011;15603;50.878;8.036;2023-12-14T00:48:08;20.30;;;7.90;;
28353;SDS011;15603;50.878;8.036;2023-12-14T00:50:35;19.88;;;8.02;;
28353;SDS011;15603;50.878;8.036;2023-12-14T00:53:02;19.23;;;8.48;;
28353;SDS011;15603;50.878;8.036;2023-12-14T00:55:29;20.95;;;8.55;;
28353;SDS011;15603;50.878;8.036;2023-12-14T00:57:57;17.77;;;7.65;;
28353;SDS011;15603;50.878;8.036;2023-12-14T01:00:24;18.77;;;8.27;;
28353;SDS011;15603;50.878;8.036;2023-12-14T01:02:52;19.65;;;7.53;;
28353;SDS011;15603;50.878;8.036;2023-12-14T01:05:19;19.63;;;8.65;;
28353;SDS011;15603;50.878;8.036;2023-12-14T01:07:47;24.23;;;8.70;;
28353;SDS011;15603;50.878;8.036;2023-12-14T01:10:14;20.83;;;8.48;;
28353;SDS011;15603;50.878;8.036;2023-12-14T01:12:41;18.88;;;8.20;;
28353;SDS011;15603;50.878;8.036;2023-12-14T01:15:08;22.42;;;8.35;;
28353;SDS011;15603;50.878;8.036;2023-12-14T01:17:36;17.17;;;8.15;;
28353;SDS011;15603;50.878;8.036;2023-12-14T01:20:07;17.40;;;7.95;;
28353;SDS011;15603;50.878;8.036;2023-12-14T01:22:36;18.58;;;7.53;;
28353;SDS011;15603;50.878;8.036;2023-12-14T01:25:04;14.65;;;7.22;;
28353;SDS011;15603;50.878;8.036;2023-12-14T01:27:31;18.20;;;6.50;;
28353;SDS011;15603;50.878;8.036;2023-12-14T01:29:58;15.52;;;6.97;;
28353;SDS011;15603;50.878;8.036;2023-12-14T01:32:25;16.45;;;7.40;;
28353;SDS011;15603;50.878;8.036;2023-12-14T01:34:52;26.02;;;7.43;;
28353;SDS011;15603;50.878;8.036;2023-12-14T01:37:20;14.73;;;7.10;;
28353;SDS011;15603;50.878;8.036;2023-12-14T01:39:47;14.63;;;6.75;;
28353;SDS011;15603;50.878;8.036;2023-12-14T01:42:14;17.10;;;7.35;;
28353;SDS011;15603;50.878;8.036;2023-12-14T01:44:41;19.05;;;6.30;;
28353;SDS011;15603;50.878;8.036;2023-12-14T01:47:08;18.70;;;6.63;;
28353;SDS011;15603;50.878;8.036;2023-12-14T01:49:36;20.55;;;7.57;;
28353;SDS011;15603;50.878;8.036;2023-12-14T01:52:03;13.93;;;7.38;;
28353;SDS011;15603;50.878;8.036;2023-12-14T01:54:31;13.45;;;7.40;;
28353;SDS011;15603;50.878;8.036;2023-12-14T01:56:58;26.50;;;8.18;;
28353;SDS011;15603;50.878;8.036;2023-12-14T01:59:27;14.98;;;7.57;;
28353;SDS011;15603;50.878;8.036;2023-12-14T02:01:54;15.27;;;7.45;;
28353;SDS011;15603;50.878;8.036;2023-12-14T02:04:24;12.82;;;7.18;;
28353;SDS011;15603;50.878;8.036;2023-12-14T02:06:52;18.80;;;7.60;;
28353;SDS011;15603;50.878;8.036;2023-12-14T02:09:19;27.83;;;7.60;;
28353;SDS011;15603;50.878;8.036;2023-12-14T02:11:47;16.77;;;8.63;;
28353;SDS011;15603;50.878;8.036;2023-12-14T02:14:14;18.40;;;7.80;;
28353;SDS011;15603;50.878;8.036;2023-12-14T02:16:41;16.90;;;7.93;;
28353;SDS011;15603;50.878;8.036;2023-12-14T02:19:08;22.08;;;8.55;;
28353;SDS011;15603;50.878;8.036;2023-12-14T02:21:36;20.92;;;8.95;;
28353;SDS011;15603;50.878;8.036;2023-12-14T02:24:03;18.95;;;8.38;;
28353;SDS011;15603;50.878;8.036;2023-12-14T02:26:30;24.20;;;8.73;;
28353;SDS011;15603;50.878;8.036;2023-12-14T02:28:57;21.23;;;8.48;;
28353;SDS011;15603;50.878;8.036;2023-12-14T02:31:24;17.77;;;7.65;;
28353;SDS011;15603;50.878;8.036;2023-12-14T02:33:51;21.17;;;7.85;;
28353;SDS011;15603;50.878;8.036;2023-12-14T02:36:19;20.38;;;8.45;;
28353;SDS011;15603;50.878;8.036;2023-12-14T02:38:46;21.02;;;7.72;;
28353;SDS011;15603;50.878;8.036;2023-12-14T02:41:14;19.67;;;7.75;;
28353;SDS011;15603;50.878;8.036;2023-12-14T02:43:41;20.67;;;7.65;;
28353;SDS011;15603;50.878;8.036;2023-12-14T02:46:08;18.75;;;8.05;;
28353;SDS011;15603;50.878;8.036;2023-12-14T02:48:35;21.60;;;8.70;;
28353;SDS011;15603;50.878;8.036;2023-12-14T02:51:03;21.77;;;8.48;;
28353;SDS011;15603;50.878;8.036;2023-12-14T02:53:30;22.35;;;8.68;;
28353;SDS011;15603;50.878;8.036;2023-12-14T02:56:00;20.42;;;8.43;;
28353;SDS011;15603;50.878;8.036;2023-12-14T02:58:28;20.67;;;7.45;;
28353;SDS011;15603;50.878;8.036;2023-12-14T03:00:55;23.60;;;9.65;;
28353;SDS011;15603;50.878;8.036;2023-12-14T03:03:22;22.50;;;8.90;;
28353;SDS011;15603;50.878;8.036;2023-12-14T03:05:49;28.58;;;9.10;;
28353;SDS011;15603;50.878;8.036;2023-12-14T03:08:17;22.05;;;8.73;;
28353;SDS011;15603;50.878;8.036;2023-12-14T03:10:44;27.50;;;9.48;;
28353;SDS011;15603;50.878;8.036;2023-12-14T03:13:11;23.27;;;8.55;;
28353;SDS011;15603;50.878;8.036;2023-12-14T03:15:38;33.05;;;7.97;;
28353;SDS011;15603;50.878;8.036;2023-12-14T03:18:05;19.58;;;7.90;;
28353;SDS011;15603;50.878;8.036;2023-12-14T03:20:32;29.67;;;9.52;;
28353;SDS011;15603;50.878;8.036;2023-12-14T03:23:00;19.52;;;8.40;;
28353;SDS011;15603;50.878;8.036;2023-12-14T03:25:27;20.80;;;8.55;;
28353;SDS011;15603;50.878;8.036;2023-12-14T03:27:54;21.85;;;7.93;;
28353;SDS011;15603;50.878;8.036;2023-12-14T03:30:21;20.65;;;7.97;;
28353;SDS011;15603;50.878;8.036;2023-12-14T03:32:48;25.73;;;8.30;;
28353;SDS011;15603;50.878;8.036;2023-12-14T03:35:16;19.88;;;8.07;;
28353;SDS011;15603;50.878;8.036;2023-12-14T03:37:43;22.80;;;8.55;;
28353;SDS011;15603;50.878;8.036;2023-12-14T03:40:10;19.80;;;7.78;;
28353;SDS011;15603;50.878;8.036;2023-12-14T03:42:37;20.85;;;7.95;;
28353;SDS011;15603;50.878;8.036;2023-12-14T03:45:04;19.25;;;8.13;;
28353;SDS011;15603;50.878;8.036;2023-12-14T03:47:32;28.17;;;8.27;;
28353;SDS011;15603;50.878;8.036;2023-12-14T03:49:59;21.00;;;7.70;;
28353;SDS011;15603;50.878;8.036;2023-12-14T03:52:27;15.85;;;7.10;;
28353;SDS011;15603;50.878;8.036;2023-12-14T03:54:54;21.48;;;7.60;;
28353;SDS011;15603;50.878;8.036;2023-12-14T03:57:22;23.83;;;9.10;;
28353;SDS011;15603;50.878;8.036;2023-12-14T03:59:49;18.75;;;7.10;;
28353;SDS011;15603;50.878;8.036;2023-12-14T04:02:16;28.70;;;7.25;;
28353;SDS011;15603;50.878;8.036;2023-12-14T04:04:43;19.50;;;8.00;;
28353;SDS011;15603;50.878;8.036;2023-12-14T04:07:10;20.15;;;7.38;;
28353;SDS011;15603;50.878;8.036;2023-12-14T04:09:37;15.85;;;7.93;;
28353;SDS011;15603;50.878;8.036;2023-12-14T04:12:04;22.45;;;6.90;;
28353;SDS011;15603;50.878;8.036;2023-12-14T04:14:32;17.42;;;7.20;;
28353;SDS011;15603;50.878;8.036;2023-12-14T04:16:59;18.73;;;7.10;;
28353;SDS011;15603;50.878;8.036;2023-12-14T04:19:26;16.73;;;7.55;;
28353;SDS011;15603;50.878;8.036;2023-12-14T04:21:53;24.48;;;6.85;;
28353;SDS011;15603;50.878;8.036;2023-12-14T04:24:20;22.25;;;8.13;;
28353;SDS011;15603;50.878;8.036;2023-12-14T04:26:48;17.83;;;8.00;;
28353;SDS011;15603;50.878;8.036;2023-12-14T04:29:15;30.38;;;9.00;;
28353;SDS011;15603;50.878;8.036;2023-12-14T04:31:43;28.35;;;9.63;;
28353;SDS011;15603;50.878;8.036;2023-12-14T04:34:10;25.58;;;10.30;;
28353;SDS011;15603;50.878;8.036;2023-12-14T04:36:42;25.73;;;10.02;;
28353;SDS011;15603;50.878;8.036;2023-12-14T04:39:09;32.65;;;10.00;;
28353;SDS011;15603;50.878;8.036;2023-12-14T04:41:37;31.30;;;9.13;;
28353;SDS011;15603;50.878;8.036;2023-12-14T04:44:04;29.98;;;9.43;;
28353;SDS011;15603;50.878;8.036;2023-12-14T04:46:31;35.22;;;10.27;;
28353;SDS011;15603;50.878;8.036;2023-12-14T04:48:58;29.63;;;9.88;;
28353;SDS011;15603;50.878;8.036;2023-12-14T04:51:26;31.90;;;9.57;;
28353;SDS011;15603;50.878;8.036;2023-12-14T04:53:53;21.45;;;8.38;;
28353;SDS011;15603;50.878;8.036;2023-12-14T04:56:20;31.35;;;10.32;;
28353;SDS011;15603;50.878;8.036;2023-12-14T04:58:47;24.38;;;9.57;;
28353;SDS011;15603;50.878;8.036;2023-12-14T05:01:14;26.15;;;9.80;;
28353;SDS011;15603;50.878;8.036;2023-12-14T05:03:41;30.58;;;9.73;;
28353;SDS011;15603;50.878;8.036;2023-12-14T05:06:08;23.23;;;9.75;;
28353;SDS011;15603;50.878;8.036;2023-12-14T05:08:36;22.25;;;9.13;;
28353;SDS011;15603;50.878;8.036;2023-12-14T05:11:03;24.33;;;8.77;;
28353;SDS011;15603;50.878;8.036;2023-12-14T05:13:31;31.20;;;10.25;;
28353;SDS011;15603;50.878;8.036;2023-12-14T05:15:58;29.15;;;8.93;;
28353;SDS011;15603;50.878;8.036;2023-12-14T05:18:25;27.08;;;10.00;;
28353;SDS011;15603;50.878;8.036;2023-12-14T05:20:52;28.15;;;10.60;;
28353;SDS011;15603;50.878;8.036;2023-12-14T05:23:20;27.55;;;9.98;;
28353;SDS011;15603;50.878;8.036;2023-12-14T05:25:47;26.75;;;9.98;;
28353;SDS011;15603;50.878;8.036;2023-12-14T05:28:14;36.28;;;9.27;;
28353;SDS011;15603;50.878;8.036;2023-12-14T05:30:42;35.35;;;10.38;;
28353;SDS011;15603;50.878;8.036;2023-12-14T05:33:09;27.10;;;10.13;;
28353;SDS011;15603;50.878;8.036;2023-12-14T05:35:39;22.95;;;8.82;;
28353;SDS011;15603;50.878;8.036;2023-12-14T05:38:06;30.13;;;9.30;;
28353;SDS011;15603;50.878;8.036;2023-12-14T05:40:33;24.40;;;9.70;;
28353;SDS011;15603;50.878;8.036;2023-12-14T05:43:00;36.33;;;11.05;;
28353;SDS011;15603;50.878;8.036;2023-12-14T05:45:27;29.48;;;10.05;;
28353;SDS011;15603;50.878;8.036;2023-12-14T05:47:55;26.80;;;8.77;;
28353;SDS011;15603;50.878;8.036;2023-12-14T05:50:23;11.13;;;5.13;;
28353;SDS011;15603;50.878;8.036;2023-12-14T05:52:50;17.30;;;7.30;;
28353;SDS011;15603;50.878;8.036;2023-12-14T05:55:17;11.40;;;3.55;;
28353;SDS011;15603;50.878;8.036;2023-12-14T05:57:48;9.15;;;2.42;;
28353;SDS011;15603;50.878;8.036;2023-12-14T06:00:17;4.68;;;2.47;;
28353;SDS011;15603;50.878;8.036;2023-12-14T06:02:45;9.70;;;2.47;;
28353;SDS011;15603;50.878;8.036;2023-12-14T06:05:12;11.07;;;1.90;;
28353;SDS011;15603;50.878;8.036;2023-12-14T06:07:39;4.97;;;2.60;;
28353;SDS011;15603;50.878;8.036;2023-12-14T06:10:06;4.90;;;2.15;;
28353;SDS011;15603;50.878;8.036;2023-12-14T06:12:34;2.80;;;1.17;;
28353;SDS011;15603;50.878;8.036;2023-12-14T06:15:02;1.98;;;1.30;;
28353;SDS011;15603;50.878;8.036;2023-12-14T06:17:29;2.90;;;1.25;;
28353;SDS011;15603;50.878;8.036;2023-12-14T06:19:57;3.38;;;1.20;;
28353;SDS011;15603;50.878;8.036;2023-12-14T06:22:24;2.17;;;1.08;;
28353;SDS011;15603;50.878;8.036;2023-12-14T06:24:51;4.10;;;1.50;;
28353;SDS011;15603;50.878;8.036;2023-12-14T06:27:19;5.50;;;1.50;;
28353;SDS011;15603;50.878;8.036;2023-12-14T06:29:46;2.83;;;1.40;;
28353;SDS011;15603;50.878;8.036;2023-12-14T06:32:13;1.60;;;0.85;;
28353;SDS011;15603;50.878;8.036;2023-12-14T06:34:40;3.05;;;1.08;;
28353;SDS011;15603;50.878;8.036;2023-12-14T06:37:08;3.08;;;1.17;;
28353;SDS011;15603;50.878;8.036;2023-12-14T06:39:35;1.33;;;0.90;;
28353;SDS011;15603;50.878;8.036;2023-12-14T06:42:02;2.58;;;1.42;;
28353;SDS011;15603;50.878;8.036;2023-12-14T06:44:29;2.25;;;0.95;;
28353;SDS011;15603;50.878;8.036;2023-12-14T06:46:59;1.92;;;1.20;;
28353;SDS011;15603;50.878;8.036;2023-12-14T06:49:26;3.70;;;1.10;;
28353;SDS011;15603;50.878;8.036;2023-12-14T06:51:53;3.80;;;1.70;;
28353;SDS011;15603;50.878;8.036;2023-12-14T06:54:21;2.67;;;1.38;;
28353;SDS011;15603;50.878;8.036;2023-12-14T06:56:48;2.22;;;1.23;;
28353;SDS011;15603;50.878;8.036;2023-12-14T06:59:15;2.90;;;1.30;;
28353;SDS011;15603;50.878;8.036;2023-12-14T07:01:42;2.97;;;1.42;;
28353;SDS011;15603;50.878;8.036;2023-12-14T07:04:09;2.00;;;1.20;;
28353;SDS011;15603;50.878;8.036;2023-12-14T07:06:39;3.72;;;1.40;;
28353;SDS011;15603;50.878;8.036;2023-12-14T07:09:06;2.53;;;1.20;;
28353;SDS011;15603;50.878;8.036;2023-12-14T07:11:33;2.72;;;1.60;;
28353;SDS011;15603;50.878;8.036;2023-12-14T07:14:00;6.40;;;1.92;;
28353;SDS011;15603;50.878;8.036;2023-12-14T07:16:28;3.35;;;1.50;;
28353;SDS011;15603;50.878;8.036;2023-12-14T07:18:55;4.05;;;1.50;;
28353;SDS011;15603;50.878;8.036;2023-12-14T07:21:22;6.00;;;1.90;;
28353;SDS011;15603;50.878;8.036;2023-12-14T07:23:49;3.15;;;1.40;;
28353;SDS011;15603;50.878;8.036;2023-12-14T07:26:16;3.60;;;1.30;;
28353;SDS011;15603;50.878;8.036;2023-12-14T07:28:43;4.45;;;1.65;;
28353;SDS011;15603;50.878;8.036;2023-12-14T07:31:11;2.85;;;1.23;;
28353;SDS011;15603;50.878;8.036;2023-12-14T07:33:38;2.45;;;1.30;;
28353;SDS011;15603;50.878;8.036;2023-12-14T07:36:05;2.35;;;1.27;;
28353;SDS011;15603;50.878;8.036;2023-12-14T07:38:32;3.05;;;1.45;;
28353;SDS011;15603;50.878;8.036;2023-12-14T07:41:00;3.83;;;1.30;;
28353;SDS011;15603;50.878;8.036;2023-12-14T07:43:27;3.45;;;1.63;;
28353;SDS011;15603;50.878;8.036;2023-12-14T07:45:54;3.08;;;1.75;;
28353;SDS011;15603;50.878;8.036;2023-12-14T07:48:21;5.40;;;1.45;;
28353;SDS011;15603;50.878;8.036;2023-12-14T07:50:48;4.40;;;1.30;;
28353;SDS011;15603;50.878;8.036;2023-12-14T07:53:15;2.33;;;1.13;;
28353;SDS011;15603;50.878;8.036;2023-12-14T07:55:43;2.40;;;1.50;;
28353;SDS011;15603;50.878;8.036;2023-12-14T07:58:10;4.28;;;1.67;;
28353;SDS011;15603;50.878;8.036;2023-12-14T08:00:37;4.40;;;1.73;;
28353;SDS011;15603;50.878;8.036;2023-12-14T08:03:04;4.38;;;1.88;;
28353;SDS011;15603;50.878;8.036;2023-12-14T08:05:32;5.60;;;1.63;;
28353;SDS011;15603;50.878;8.036;2023-12-14T08:07:59;5.60;;;1.95;;
28353;SDS011;15603;50.878;8.036;2023-12-14T08:10:26;4.47;;;1.70;;
28353;SDS011;15603;50.878;8.036;2023-12-14T08:12:53;4.15;;;1.50;;
28353;SDS011;15603;50.878;8.036;2023-12-14T08:15:20;6.68;;;1.73;;
28353;SDS011;15603;50.878;8.036;2023-12-14T08:17:47;3.35;;;1.52;;
28353;SDS011;15603;50.878;8.036;2023-12-14T08:20:15;2.90;;;1.35;;
28353;SDS011;15603;50.878;8.036;2023-12-14T08:22:42;2.95;;;1.50;;
28353;SDS011;15603;50.878;8.036;2023-12-14T08:25:12;3.38;;;1.58;;
28353;SDS011;15603;50.878;8.036;2023-12-14T08:27:41;3.58;;;1.77;;
28353;SDS011;15603;50.878;8.036;2023-12-14T08:30:09;3.15;;;1.20;;
28353;SDS011;15603;50.878;8.036;2023-12-14T08:32:37;2.22;;;1.35;;
28353;SDS011;15603;50.878;8.036;2023-12-14T08:35:05;4.20;;;1.83;;
28353;SDS011;15603;50.878;8.036;2023-12-14T08:37:32;4.55;;;1.40;;
28353;SDS011;15603;50.878;8.036;2023-12-14T08:39:59;4.72;;;1.45;;
28353;SDS011;15603;50.878;8.036;2023-12-14T08:42:26;3.17;;;1.30;;
28353;SDS011;15603;50.878;8.036;2023-12-14T08:44:53;6.32;;;1.35;;
28353;SDS011;15603;50.878;8.036;2023-12-14T08:47:20;5.97;;;1.63;;
28353;SDS011;15603;50.878;8.036;2023-12-14T08:49:48;4.30;;;1.63;;
28353;SDS011;15603;50.878;8.036;2023-12-14T08:52:15;3.72;;;1.55;;
28353;SDS011;15603;50.878;8.036;2023-12-14T08:54:42;2.67;;;1.35;;
28353;SDS011;15603;50.878;8.036;2023-12-14T08:57:12;6.75;;;1.40;;
28353;SDS011;15603;50.878;8.036;2023-12-14T08:59:39;3.83;;;1.60;;
28353;SDS011;15603;50.878;8.036;2023-12-14T09:02:10;2.83;;;1.45;;
28353;SDS011;15603;50.878;8.036;2023-12-14T09:04:38;2.75;;;1.25;;
28353;SDS011;15603;50.878;8.036;2023-12-14T09:07:06;2.88;;;1.45;;
28353;SDS011;15603;50.878;8.036;2023-12-14T09:09:33;3.58;;;1.92;;
28353;SDS011;15603;50.878;8.036;2023-12-14T09:12:00;6.43;;;2.00;;
28353;SDS011;15603;50.878;8.036;2023-12-14T09:14:27;2.75;;;1.52;;
28353;SDS011;15603;50.878;8.036;2023-12-14T09:16:54;4.45;;;1.55;;
28353;SDS011;15603;50.878;8.036;2023-12-14T09:19:21;6.90;;;1.67;;
28353;SDS011;15603;50.878;8.036;2023-12-14T09:21:48;5.55;;;2.38;;
28353;SDS011;15603;50.878;8.036;2023-12-14T09:24:15;6.38;;;2.28;;
28353;SDS011;15603;50.878;8.036;2023-12-14T09:26:43;4.28;;;1.92;;
28353;SDS011;15603;50.878;8.036;2023-12-14T09:29:10;5.32;;;1.60;;
28353;SDS011;15603;50.878;8.036;2023-12-14T09:31:40;6.40;;;1.92;;
28353;SDS011;15603;50.878;8.036;2023-12-14T09:34:10;3.88;;;2.30;;
28353;SDS011;15603;50.878;8.036;2023-12-14T09:36:37;5.45;;;2.30;;
28353;SDS011;15603;50.878;8.036;2023-12-14T09:39:05;3.97;;;2.20;;
28353;SDS011;15603;50.878;8.036;2023-12-14T09:41:37;5.23;;;2.37;;
28353;SDS011;15603;50.878;8.036;2023-12-14T09:44:05;2.70;;;1.83;;
28353;SDS011;15603;50.878;8.036;2023-12-14T09:46:34;3.60;;;2.25;;
28353;SDS011;15603;50.878;8.036;2023-12-14T09:49:04;5.93;;;2.47;;
28353;SDS011;15603;50.878;8.036;2023-12-14T09:51:35;3.70;;;1.70;;
28353;SDS011;15603;50.878;8.036;2023-12-14T09:54:03;3.15;;;1.88;;
28353;SDS011;15603;50.878;8.036;2023-12-14T09:56:30;3.38;;;2.10;;
28353;SDS011;15603;50.878;8.036;2023-12-14T09:58:57;6.72;;;2.97;;
28353;SDS011;15603;50.878;8.036;2023-12-14T10:01:27;4.82;;;2.10;;
28353;SDS011;15603;50.878;8.036;2023-12-14T10:04:10;4.40;;;2.22;;
28353;SDS011;15603;50.878;8.036;2023-12-14T10:06:39;3.97;;;2.10;;
28353;SDS011;15603;50.878;8.036;2023-12-14T10:09:07;3.15;;;1.95;;
28353;SDS011;15603;50.878;8.036;2023-12-14T10:11:36;6.88;;;2.15;;
28353;SDS011;15603;50.878;8.036;2023-12-14T10:14:16;3.22;;;2.20;;
28353;SDS011;15603;50.878;8.036;2023-12-14T10:16:48;4.57;;;2.35;;
28353;SDS011;15603;50.878;8.036;2023-12-14T10:19:18;3.33;;;1.58;;
28353;SDS011;15603;50.878;8.036;2023-12-14T10:21:46;5.10;;;2.28;;
28353;SDS011;15603;50.878;8.036;2023-12-14T10:24:15;3.22;;;2.03;;
28353;SDS011;15603;50.878;8.036;2023-12-14T10:26:49;3.30;;;1.80;;
28353;SDS011;15603;50.878;8.036;2023-12-14T10:29:17;6.15;;;1.50;;
28353;SDS011;15603;50.878;8.036;2023-12-14T10:31:45;5.43;;;2.17;;
28353;SDS011;15603;50.878;8.036;2023-12-14T10:34:13;2.85;;;1.85;;
28353;SDS011;15603;50.878;8.036;2023-12-14T10:36:40;4.10;;;1.83;;
28353;SDS011;15603;50.878;8.036;2023-12-14T10:39:11;2.22;;;1.48;;
28353;SDS011;15603;50.878;8.036;2023-12-14T10:41:43;2.20;;;1.50;;
28353;SDS011;15603;50.878;8.036;2023-12-14T10:44:20;3.78;;;1.80;;
28353;SDS011;15603;50.878;8.036;2023-12-14T10:47:12;2.20;;;1.70;;
28353;SDS011;15603;50.878;8.036;2023-12-14T10:49:42;3.10;;;1.63;;
28353;SDS011;15603;50.878;8.036;2023-12-14T10:52:10;3.38;;;2.00;;
28353;SDS011;15603;50.878;8.036;2023-12-14T10:54:39;2.70;;;1.75;;
28353;SDS011;15603;50.878;8.036;2023-12-14T10:57:08;6.25;;;2.20;;
28353;SDS011;15603;50.878;8.036;2023-12-14T10:59:35;2.90;;;1.80;;
28353;SDS011;15603;50.878;8.036;2023-12-14T11:02:06;1.83;;;1.38;;
28353;SDS011;15603;50.878;8.036;2023-12-14T11:04:57;2.95;;;2.08;;
28353;SDS011;15603;50.878;8.036;2023-12-14T11:10:26;3.20;;;1.50;;
28353;SDS011;15603;50.878;8.036;2023-12-14T11:15:38;1.70;;;1.30;;
28353;SDS011;15603;50.878;8.036;2023-12-14T11:23:11;3.38;;;2.03;;
28353;SDS011;15603;50.878;8.036;2023-12-14T11:25:40;2.55;;;1.83;;
28353;SDS011;15603;50.878;8.036;2023-12-14T11:28:13;3.78;;;2.13;;
28353;SDS011;15603;50.878;8.036;2023-12-14T11:30:43;3.75;;;1.98;;
28353;SDS011;15603;50.878;8.036;2023-12-14T11:33:21;3.15;;;2.17;;
28353;SDS011;15603;50.878;8.036;2023-12-14T11:35:51;4.10;;;2.58;;
28353;SDS011;15603;50.878;8.036;2023-12-14T11:38:19;8.23;;;2.05;;
28353;SDS011;15603;50.878;8.036;2023-12-14T11:40:49;5.32;;;2.25;;
28353;SDS011;15603;50.878;8.036;2023-12-14T11:43:17;4.60;;;2.20;;
28353;SDS011;15603;50.878;8.036;2023-12-14T11:45:48;4.80;;;2.35;;
28353;SDS011;15603;50.878;8.036;2023-12-14T11:48:15;5.68;;;2.38;;
28353;SDS011;15603;50.878;8.036;2023-12-14T11:50:43;5.40;;;2.47;;
28353;SDS011;15603;50.878;8.036;2023-12-14T11:53:11;8.50;;;2.47;;
28353;SDS011;15603;50.878;8.036;2023-12-14T11:55:40;3.78;;;2.13;;
28353;SDS011;15603;50.878;8.036;2023-12-14T11:58:11;4.03;;;2.20;;
28353;SDS011;15603;50.878;8.036;2023-12-14T12:00:40;4.37;;;2.00;;
28353;SDS011;15603;50.878;8.036;2023-12-14T12:03:08;5.25;;;1.90;;
28353;SDS011;15603;50.878;8.036;2023-12-14T12:05:40;4.72;;;2.30;;
28353;SDS011;15603;50.878;8.036;2023-12-14T12:08:09;4.07;;;2.08;;
28353;SDS011;15603;50.878;8.036;2023-12-14T12:10:37;4.55;;;2.35;;
28353;SDS011;15603;50.878;8.036;2023-12-14T12:13:07;5.18;;;2.50;;
28353;SDS011;15603;50.878;8.036;2023-12-14T12:15:37;5.47;;;2.13;;
28353;SDS011;15603;50.878;8.036;2023-12-14T12:18:09;5.22;;;2.75;;
28353;SDS011;15603;50.878;8.036;2023-12-14T12:20:37;4.43;;;2.47;;
28353;SDS011;15603;50.878;8.036;2023-12-14T12:23:05;6.43;;;2.70;;
28353;SDS011;15603;50.878;8.036;2023-12-14T12:25:32;5.35;;;2.60;;
28353;SDS011;15603;50.878;8.036;2023-12-14T12:28:00;4.93;;;2.50;;
28353;SDS011;15603;50.878;8.036;2023-12-14T12:30:29;6.20;;;2.25;;
28353;SDS011;15603;50.878;8.036;2023-12-14T12:32:56;5.55;;;3.05;;
28353;SDS011;15603;50.878;8.036;2023-12-14T12:35:24;6.78;;;2.92;;
28353;SDS011;15603;50.878;8.036;2023-12-14T12:37:52;5.38;;;2.70;;
28353;SDS011;15603;50.878;8.036;2023-12-14T12:40:22;5.95;;;2.72;;
28353;SDS011;15603;50.878;8.036;2023-12-14T12:42:52;7.22;;;3.20;;
28353;SDS011;15603;50.878;8.036;2023-12-14T12:45:19;15.45;;;3.85;;
28353;SDS011;15603;50.878;8.036;2023-12-14T12:47:52;8.40;;;3.05;;
28353;SDS011;15603;50.878;8.036;2023-12-14T12:50:20;7.22;;;3.70;;
28353;SDS011;15603;50.878;8.036;2023-12-14T12:52:47;10.32;;;3.70;;
28353;SDS011;15603;50.878;8.036;2023-12-14T12:55:16;9.98;;;4.13;;
28353;SDS011;15603;50.878;8.036;2023-12-14T12:57:43;11.80;;;4.63;;
28353;SDS011;15603;50.878;8.036;2023-12-14T13:00:10;11.80;;;4.65;;
28353;SDS011;15603;50.878;8.036;2023-12-14T13:02:38;14.38;;;5.43;;
28353;SDS011;15603;50.878;8.036;2023-12-14T13:05:07;12.13;;;5.25;;
28353;SDS011;15603;50.878;8.036;2023-12-14T13:07:37;12.15;;;4.65;;
28353;SDS011;15603;50.878;8.036;2023-12-14T13:10:05;10.98;;;4.78;;
28353;SDS011;15603;50.878;8.036;2023-12-14T13:12:51;13.15;;;5.72;;
28353;SDS011;15603;50.878;8.036;2023-12-14T13:15:18;14.85;;;6.22;;
28353;SDS011;15603;50.878;8.036;2023-12-14T13:17:46;13.73;;;5.70;;
28353;SDS011;15603;50.878;8.036;2023-12-14T13:20:13;11.07;;;5.35;;
28353;SDS011;15603;50.878;8.036;2023-12-14T13:22:41;18.38;;;6.53;;
28353;SDS011;15603;50.878;8.036;2023-12-14T13:25:08;14.90;;;6.20;;
28353;SDS011;15603;50.878;8.036;2023-12-14T13:27:36;15.43;;;6.28;;
28353;SDS011;15603;50.878;8.036;2023-12-14T13:30:04;12.90;;;5.70;;
28353;SDS011;15603;50.878;8.036;2023-12-14T13:32:32;15.00;;;5.10;;
28353;SDS011;15603;50.878;8.036;2023-12-14T13:34:59;12.10;;;4.82;;
28353;SDS011;15603;50.878;8.036;2023-12-14T13:37:27;15.43;;;5.03;;
28353;SDS011;15603;50.878;8.036;2023-12-14T13:39:54;9.43;;;4.85;;
28353;SDS011;15603;50.878;8.036;2023-12-14T13:42:21;13.40;;;5.05;;
28353;SDS011;15603;50.878;8.036;2023-12-14T13:44:48;10.55;;;5.05;;
28353;SDS011;15603;50.878;8.036;2023-12-14T13:47:15;9.95;;;5.28;;
28353;SDS011;15603;50.878;8.036;2023-12-14T13:49:43;10.57;;;4.80;;
28353;SDS011;15603;50.878;8.036;2023-12-14T13:52:10;12.20;;;4.93;;
28353;SDS011;15603;50.878;8.036;2023-12-14T13:54:37;14.10;;;5.00;;
28353;SDS011;15603;50.878;8.036;2023-12-14T13:57:05;13.10;;;4.60;;
28353;SDS011;15603;50.878;8.036;2023-12-14T13:59:32;13.77;;;6.63;;
28353;SDS011;15603;50.878;8.036;2023-12-14T14:01:59;14.68;;;5.35;;
28353;SDS011;15603;50.878;8.036;2023-12-14T14:04:26;8.75;;;3.88;;
28353;SDS011;15603;50.878;8.036;2023-12-14T14:06:53;9.45;;;4.28;;
28353;SDS011;15603;50.878;8.036;2023-12-14T14:09:20;10.85;;;4.57;;
28353;SDS011;15603;50.878;8.036;2023-12-14T14:11:48;7.95;;;4.20;;
28353;SDS011;15603;50.878;8.036;2023-12-14T14:14:17;10.05;;;4.20;;
28353;SDS011;15603;50.878;8.036;2023-12-14T14:16:44;8.18;;;4.50;;
28353;SDS011;15603;50.878;8.036;2023-12-14T14:19:13;8.05;;;4.10;;
28353;SDS011;15603;50.878;8.036;2023-12-14T14:21:40;10.88;;;4.35;;
28353;SDS011;15603;50.878;8.036;2023-12-14T14:24:08;11.30;;;4.45;;
28353;SDS011;15603;50.878;8.036;2023-12-14T14:26:35;9.63;;;4.72;;
28353;SDS011;15603;50.878;8.036;2023-12-14T14:29:02;9.63;;;4.85;;
28353;SDS011;15603;50.878;8.036;2023-12-14T14:31:29;9.95;;;4.78;;
28353;SDS011;15603;50.878;8.036;2023-12-14T14:33:58;10.15;;;4.57;;
28353;SDS011;15603;50.878;8.036;2023-12-14T14:36:27;11.90;;;5.07;;
28353;SDS011;15603;50.878;8.036;2023-12-14T14:38:54;10.38;;;4.57;;
28353;SDS011;15603;50.878;8.036;2023-12-14T14:41:24;9.35;;;4.82;;
28353;SDS011;15603;50.878;8.036;2023-12-14T14:43:52;14.43;;;5.47;;
28353;SDS011;15603;50.878;8.036;2023-12-14T14:46:19;10.48;;;4.47;;
28353;SDS011;15603;50.878;8.036;2023-12-14T14:48:46;10.45;;;4.65;;
28353;SDS011;15603;50.878;8.036;2023-12-14T14:51:14;10.60;;;4.78;;
28353;SDS011;15603;50.878;8.036;2023-12-14T14:53:41;13.38;;;5.60;;
28353;SDS011;15603;50.878;8.036;2023-12-14T14:56:11;9.05;;;4.85;;